createdAt,value
2023-04-25T00:02:10.884Z,99.90
2023-04-25T00:07:15.547Z,99.90
2023-04-25T00:12:17.967Z,99.90
2023-04-25T00:17:20.294Z,99.90
2023-04-25T00:22:22.509Z,99.90
2023-04-25T00:27:24.317Z,99.90
2023-04-25T00:32:26.170Z,99.90
2023-04-25T00:37:28.051Z,99.90
2023-04-25T00:42:30.867Z,99.90
2023-04-25T00:47:33.541Z,99.90
2023-04-25T00:52:35.488Z,99.90
2023-04-25T00:57:37.586Z,99.90
2023-04-25T01:02:39.627Z,99.90
2023-04-25T01:07:42.068Z,99.90
2023-04-25T01:12:43.936Z,99.90
2023-04-25T01:17:45.971Z,99.90
2023-04-25T01:22:47.838Z,99.90
2023-04-25T01:27:49.750Z,99.90
2023-04-25T01:32:52.030Z,99.90
2023-04-25T01:37:54.406Z,99.90
2023-04-25T01:42:56.502Z,99.90
2023-04-25T01:48:00.414Z,99.90
2023-04-25T01:53:03.064Z,99.90
2023-04-25T01:58:10.057Z,99.90
2023-04-25T02:03:11.991Z,99.90
2023-04-25T02:08:13.920Z,99.90
2023-04-25T02:13:15.908Z,99.90
2023-04-25T02:18:17.792Z,99.90
2023-04-25T02:23:22.431Z,99.90
2023-04-25T02:28:25.763Z,99.90
2023-04-25T02:33:27.557Z,99.90
2023-04-25T02:38:29.335Z,99.90
2023-04-25T02:43:31.499Z,99.90
2023-04-25T02:48:33.286Z,99.90
2023-04-25T02:53:36.272Z,99.90
2023-04-25T02:58:38.097Z,99.90
2023-04-25T03:03:39.915Z,99.90
2023-04-25T03:08:41.807Z,99.90
2023-04-25T03:13:43.674Z,99.90
2023-04-25T03:18:45.547Z,99.90
2023-04-25T03:23:47.581Z,99.90
2023-04-25T03:28:49.410Z,99.90
2023-04-25T03:33:51.465Z,99.90
2023-04-25T03:38:53.512Z,99.90
2023-04-25T03:43:55.947Z,99.90
2023-04-25T03:48:57.820Z,99.90
2023-04-25T03:53:59.828Z,99.90
2023-04-25T03:59:01.760Z,99.90
2023-04-25T04:04:03.844Z,99.90
2023-04-25T04:09:06.161Z,99.90
2023-04-25T04:14:08.708Z,99.90
2023-04-25T04:19:10.498Z,99.90
2023-04-25T04:24:12.335Z,99.90
2023-04-25T04:29:21.626Z,99.90
2023-04-25T04:34:25.366Z,99.90
2023-04-25T04:39:27.159Z,99.90
2023-04-25T04:44:29.603Z,99.90
2023-04-25T04:49:31.416Z,99.90
2023-04-25T04:54:33.342Z,99.90
2023-04-25T04:59:36.257Z,99.90
2023-04-25T05:04:38.099Z,99.90
2023-04-25T05:09:40.066Z,99.90
2023-04-25T05:14:41.881Z,99.90
2023-04-25T05:19:43.875Z,99.90
2023-04-25T05:24:45.804Z,99.90
2023-04-25T05:29:47.702Z,99.90
2023-04-25T05:34:49.605Z,99.90
2023-04-25T05:39:51.436Z,99.90
2023-04-25T05:44:53.613Z,99.90
2023-04-25T05:49:55.551Z,99.90
2023-04-25T05:54:57.474Z,99.80
2023-04-25T05:59:59.325Z,99.40
2023-04-25T06:05:01.302Z,99.10
2023-04-25T06:10:07.292Z,99.00
2023-04-25T06:15:20.096Z,99.30
2023-04-25T06:20:31.588Z,97.60
2023-04-25T06:25:33.393Z,96.40
2023-04-25T06:30:35.215Z,94.50
2023-04-25T06:35:37.015Z,93.00
2023-04-25T06:40:38.850Z,91.70
2023-04-25T06:45:41.140Z,91.30
2023-04-25T06:50:42.942Z,90.10
2023-04-25T06:55:44.885Z,87.90
2023-04-25T07:00:46.815Z,86.10
2023-04-25T07:05:49.735Z,83.60
2023-04-25T07:10:51.669Z,82.90
2023-04-25T07:15:54.906Z,83.50
2023-04-25T07:20:58.569Z,81.80
2023-04-25T07:26:00.379Z,81.20
2023-04-25T07:31:02.285Z,77.40
2023-04-25T07:36:04.382Z,75.80
2023-04-25T07:41:06.561Z,78.30
2023-04-25T07:46:08.790Z,73.10
2023-04-25T07:51:10.623Z,76.20
2023-04-25T07:56:12.440Z,75.40
2023-04-25T08:01:14.260Z,72.90
2023-04-25T08:06:16.505Z,68.50
2023-04-25T08:11:18.494Z,69.90
2023-04-25T08:16:20.457Z,68.70
2023-04-25T08:21:22.301Z,69.00
2023-04-25T08:26:24.094Z,66.70
2023-04-25T08:31:26.470Z,66.00
2023-04-25T08:41:34.476Z,62.40
2023-04-25T08:46:39.086Z,64.90
2023-04-25T08:51:50.784Z,66.90
2023-04-25T08:56:52.753Z,66.00
2023-04-25T09:01:54.688Z,66.30
2023-04-25T09:06:56.499Z,65.90
2023-04-25T09:11:59.022Z,68.40
2023-04-25T09:17:02.489Z,71.60
2023-04-25T09:22:05.431Z,73.80
2023-04-25T09:27:08.579Z,75.90
2023-04-25T09:32:21.609Z,74.40
2023-04-25T09:37:29.000Z,69.10
2023-04-25T09:42:33.005Z,69.10
2023-04-25T09:47:38.962Z,69.60
2023-04-25T09:52:40.966Z,70.10
2023-04-25T09:57:43.285Z,70.30
2023-04-25T10:02:49.336Z,63.90
2023-04-25T10:07:51.838Z,62.50
2023-04-25T10:12:54.208Z,64.80
2023-04-25T10:17:56.637Z,69.60
2023-04-25T10:23:05.881Z,70.70
2023-04-25T10:28:07.743Z,70.60
2023-04-25T10:33:19.637Z,72.10
2023-04-25T10:38:21.526Z,69.00
2023-04-25T10:43:32.434Z,69.40
2023-04-25T10:48:35.750Z,71.30
2023-04-25T10:53:38.127Z,72.20
2023-04-25T10:58:47.200Z,73.90
2023-04-25T11:03:51.615Z,75.80
2023-04-25T11:08:54.051Z,73.20
2023-04-25T11:13:56.070Z,73.80
2023-04-25T11:19:00.969Z,78.60
2023-04-25T11:24:02.815Z,77.80
2023-04-25T11:29:04.638Z,77.70
2023-04-25T11:34:06.437Z,77.10
2023-04-25T11:39:08.247Z,72.70
2023-04-25T11:44:10.051Z,69.40
2023-04-25T11:49:12.793Z,64.70
2023-04-25T11:54:15.840Z,65.10
2023-04-25T11:59:17.767Z,68.20
2023-04-25T12:04:22.407Z,68.50
2023-04-25T12:09:32.887Z,71.10
2023-04-25T12:14:36.631Z,70.80
2023-04-25T12:19:42.742Z,69.40
2023-04-25T12:24:46.205Z,67.40
2023-04-25T12:29:52.748Z,62.00
2023-04-25T12:34:54.571Z,63.90
2023-04-25T12:39:56.394Z,66.30
2023-04-25T12:44:58.200Z,73.70
2023-04-25T12:50:00.153Z,76.10
2023-04-25T12:55:02.030Z,81.00
2023-04-25T13:00:05.388Z,82.90
2023-04-25T13:05:07.515Z,86.40
2023-04-25T13:10:09.595Z,87.00
2023-04-25T13:15:12.387Z,86.90
2023-04-25T13:20:15.935Z,90.00
2023-04-25T13:25:20.896Z,84.80
2023-04-25T13:30:22.736Z,83.70
2023-04-25T13:35:24.675Z,79.90
2023-04-25T13:40:27.667Z,76.10
2023-04-25T13:45:31.531Z,79.30
2023-04-25T13:50:35.191Z,82.10
2023-04-25T13:55:37.877Z,84.40
2023-04-25T14:00:40.937Z,88.00
2023-04-25T14:05:42.801Z,90.20
2023-04-25T14:10:44.594Z,89.70
2023-04-25T14:15:46.798Z,90.70
2023-04-25T14:20:48.947Z,91.30
2023-04-25T14:25:50.797Z,88.50
2023-04-25T14:30:52.681Z,86.80
2023-04-25T14:35:54.558Z,88.50
2023-04-25T14:40:56.487Z,89.50
2023-04-25T14:45:58.655Z,90.10
2023-04-25T14:51:01.594Z,90.30
2023-04-25T14:56:03.867Z,91.30
2023-04-25T15:01:05.700Z,91.70
2023-04-25T15:06:07.682Z,92.00
2023-04-25T15:11:09.490Z,91.40
2023-04-25T15:16:12.701Z,90.10
2023-04-25T15:21:14.731Z,90.40
2023-04-25T15:26:16.919Z,91.00
2023-04-25T15:31:19.992Z,91.90
2023-04-25T15:36:22.892Z,90.50
2023-04-25T15:41:25.766Z,90.10
2023-04-25T15:46:32.864Z,90.40
2023-04-25T15:51:35.290Z,90.60
2023-04-25T15:56:37.083Z,91.60
2023-04-25T16:01:40.373Z,93.10
2023-04-25T16:06:42.482Z,95.00
2023-04-25T16:11:44.354Z,97.80
2023-04-25T16:16:46.179Z,99.90
2023-04-25T16:21:48.320Z,99.90
2023-04-25T16:26:52.540Z,99.90
2023-04-25T16:31:54.536Z,99.90
2023-04-25T16:36:59.561Z,99.90
2023-04-25T16:42:03.426Z,99.90
2023-04-25T16:47:06.559Z,99.90
2023-04-25T16:52:08.591Z,99.90
2023-04-25T16:57:11.333Z,99.90
2023-04-25T17:02:13.629Z,99.90
2023-04-25T17:07:16.005Z,99.90
2023-04-25T17:12:19.729Z,99.90
2023-04-25T17:17:21.676Z,99.90
2023-04-25T17:22:24.372Z,99.90
2023-04-25T17:27:26.322Z,99.90
2023-04-25T17:32:28.136Z,99.90
2023-04-25T17:37:30.225Z,99.90
2023-04-25T17:42:32.143Z,99.90
2023-04-25T17:47:34.357Z,99.90
2023-04-25T17:52:38.600Z,99.90
2023-04-25T17:57:40.436Z,99.90
2023-04-25T18:02:42.416Z,99.90
2023-04-25T18:07:44.343Z,99.90
2023-04-25T18:12:46.184Z,99.90
2023-04-25T18:17:48.141Z,99.90
2023-04-25T18:22:50.749Z,99.90
2023-04-25T18:27:52.629Z,99.90
2023-04-25T18:32:56.172Z,99.90
2023-04-25T18:37:58.216Z,99.90
2023-04-25T18:43:00.255Z,99.90
2023-04-25T18:48:02.722Z,99.90
2023-04-25T18:53:04.672Z,99.90
2023-04-25T18:58:08.602Z,99.90
2023-04-25T19:03:10.855Z,99.90
2023-04-25T19:08:12.837Z,99.90
2023-04-25T19:13:14.706Z,99.90
2023-04-25T19:18:17.278Z,99.60
2023-04-25T19:23:19.172Z,99.60
2023-04-25T19:28:20.999Z,99.50
2023-04-25T19:33:22.896Z,99.80
2023-04-25T19:38:24.686Z,99.70
2023-04-25T19:43:26.923Z,99.40
2023-04-25T19:48:28.727Z,99.20
2023-04-25T19:53:31.472Z,99.30
2023-04-25T19:58:34.687Z,99.50
2023-04-25T20:03:36.858Z,99.90
2023-04-25T20:08:38.824Z,99.90
2023-04-25T20:13:50.631Z,99.90
2023-04-25T20:18:53.168Z,99.90
2023-04-25T20:23:55.513Z,99.90
2023-04-25T20:28:58.604Z,99.90
2023-04-25T20:34:01.003Z,99.90
2023-04-25T20:39:02.912Z,99.90
2023-04-25T20:44:04.786Z,98.70
2023-04-25T20:49:06.658Z,98.40
2023-04-25T20:54:09.704Z,98.20
2023-04-25T20:59:13.359Z,98.30
2023-04-25T21:04:15.457Z,98.40
2023-04-25T21:09:18.620Z,98.10
2023-04-25T21:14:20.699Z,97.40
2023-04-25T21:19:22.548Z,96.70
2023-04-25T21:24:26.850Z,96.30
2023-04-25T21:29:29.069Z,96.00
2023-04-25T21:34:30.931Z,96.10
2023-04-25T21:39:33.764Z,95.70
2023-04-25T21:44:36.314Z,95.50
2023-04-25T21:49:38.110Z,95.60
2023-04-25T21:54:40.270Z,95.30
2023-04-25T21:59:42.525Z,95.20
2023-04-25T22:04:47.239Z,95.30
2023-04-25T22:09:54.987Z,95.50
2023-04-25T22:14:58.383Z,95.90
2023-04-25T22:20:02.206Z,95.40
2023-04-25T22:25:05.213Z,95.20
2023-04-25T22:30:13.255Z,95.20
2023-04-25T22:35:15.308Z,95.50
2023-04-25T22:40:17.525Z,95.30
2023-04-25T22:45:19.396Z,95.20
2023-04-25T22:50:21.283Z,95.20
2023-04-25T22:55:23.349Z,95.30
2023-04-25T23:00:26.272Z,94.90
2023-04-25T23:05:28.167Z,95.20
2023-04-25T23:10:30.004Z,95.20
2023-04-25T23:15:31.972Z,94.90
2023-04-25T23:20:34.244Z,94.90
2023-04-25T23:25:42.064Z,94.40
2023-04-25T23:30:43.942Z,95.00
2023-04-25T23:35:46.017Z,94.90
2023-04-25T23:40:47.878Z,95.00
2023-04-25T23:45:49.726Z,95.00
2023-04-25T23:50:51.786Z,94.30
2023-04-25T23:55:53.904Z,94.30
